Time;durP1;ratioP1;P1;durP2;ratioP2;P2;SDS_P1;SDS_P2;PMS_P1;PMS_P2;Temp;Humidity;BMP_temperature;BMP_pressure;BME280_temperature;BME280_humidity;BME280_pressure;Samples;Min_cycle;Max_cycle;Signal;HPM_P1;HPM_P2
2021/07/18 00:00:18;;;;;;;11.20;8.58;;;;;;;17.12;88.84;92887.70;1809836;78;20998;-79
2021/07/18 00:02:45;;;;;;;9.78;8.08;;;;;;;17.09;89.23;92887.22;1812046;78;21630;-80
2021/07/18 00:05:11;;;;;;;14.25;10.45;;;;;;;17.08;89.31;92884.94;1797970;78;21076;-80
2021/07/18 00:07:38;;;;;;;10.88;7.83;;;;;;;17.09;89.34;92885.09;1797524;78;21104;-80
2021/07/18 00:10:09;;;;;;;18.55;13.08;;;;;;;17.07;89.73;92882.02;1797230;79;21020;-80
2021/07/18 00:12:36;;;;;;;12.98;8.30;;;;;;;17.06;90.09;92879.88;1798200;79;20982;-79
2021/07/18 00:15:06;;;;;;;10.20;8.73;;;;;;;17.08;90.49;92882.19;1796658;78;21061;-79
2021/07/18 00:17:38;;;;;;;15.15;8.78;;;;;;;17.10;89.84;92879.13;1797063;79;21072;-79
2021/07/18 00:20:12;;;;;;;12.33;8.13;;;;;;;17.09;89.47;92883.10;1798649;79;20898;-79
2021/07/18 00:22:40;;;;;;;11.35;7.90;;;;;;;17.04;89.64;92879.58;1798932;79;21097;-79
2021/07/18 00:25:09;;;;;;;11.75;8.08;;;;;;;16.92;90.15;92872.16;1799116;79;21444;-79
2021/07/18 00:27:35;;;;;;;12.82;8.88;;;;;;;16.82;90.88;92870.59;1800045;79;20902;-79
2021/07/18 00:30:06;;;;;;;11.90;8.10;;;;;;;16.83;91.61;92874.86;1799404;79;20874;-78
2021/07/18 00:32:33;;;;;;;13.28;8.10;;;;;;;16.90;91.49;92874.60;1798953;79;20902;-79
2021/07/18 00:34:59;;;;;;;11.53;8.30;;;;;;;16.92;90.83;92881.16;1796463;79;21378;-79
2021/07/18 00:37:27;;;;;;;10.98;8.00;;;;;;;16.89;90.75;92887.57;1795447;79;21040;-80
2021/07/18 00:39:53;;;;;;;13.03;7.67;;;;;;;16.91;90.84;92888.48;1796793;79;21072;-80
2021/07/18 00:42:20;;;;;;;10.88;8.43;;;;;;;16.87;90.75;92885.86;1796929;79;21189;-79
2021/07/18 00:44:47;;;;;;;17.92;10.28;;;;;;;16.81;91.19;92884.90;1797318;79;21091;-80
2021/07/18 00:47:16;;;;;;;17.12;10.72;;;;;;;16.75;91.65;92879.23;1800310;78;21101;-80
2021/07/18 00:49:42;;;;;;;11.65;9.95;;;;;;;16.78;91.99;92877.58;1798091;79;21111;-80
2021/07/18 00:52:09;;;;;;;14.80;8.80;;;;;;;16.86;91.73;92882.20;1798211;79;21029;-80
2021/07/18 00:54:35;;;;;;;12.53;9.03;;;;;;;16.85;91.08;92879.28;1798188;79;21084;-80
2021/07/18 00:57:03;;;;;;;13.62;9.08;;;;;;;16.85;91.10;92880.07;1797682;79;21139;-80
2021/07/18 00:59:31;;;;;;;13.80;9.13;;;;;;;16.84;90.92;92880.50;1798451;79;22370;-80
2021/07/18 01:02:00;;;;;;;17.15;10.25;;;;;;;16.82;91.06;92887.06;1795752;79;21022;-80
2021/07/18 01:04:26;;;;;;;20.00;10.32;;;;;;;16.84;91.28;92880.50;1797827;79;21036;-80
2021/07/18 01:06:54;;;;;;;13.90;8.20;;;;;;;16.89;91.34;92873.08;1798070;79;21527;-80
2021/07/18 01:09:21;;;;;;;11.68;7.67;;;;;;;16.95;91.15;92878.13;1798475;79;21084;-80
2021/07/18 01:11:49;;;;;;;14.18;8.63;;;;;;;17.02;90.63;92877.11;1797470;79;21594;-80
2021/07/18 01:14:15;;;;;;;10.60;8.45;;;;;;;16.98;90.48;92882.13;1799338;79;21437;-80
2021/07/18 01:16:45;;;;;;;11.08;7.85;;;;;;;16.94;90.67;92881.48;1798571;79;21138;-80
2021/07/18 01:19:11;;;;;;;11.50;7.95;;;;;;;16.92;90.96;92892.14;1797612;79;21220;-81
2021/07/18 01:21:39;;;;;;;9.58;7.55;;;;;;;16.89;91.01;92884.06;1798597;79;21025;-80
2021/07/18 01:24:06;;;;;;;13.13;8.33;;;;;;;16.84;91.18;92881.87;1796374;79;21065;-81
2021/07/18 01:26:34;;;;;;;14.23;9.48;;;;;;;16.84;91.26;92886.75;1797246;79;21037;-80
2021/07/18 01:29:00;;;;;;;16.27;9.80;;;;;;;16.84;91.43;92881.87;1798054;79;21037;-81
2021/07/18 01:31:26;;;;;;;14.70;9.35;;;;;;;16.87;91.52;92880.98;1769401;79;21630;-81
2021/07/18 01:33:53;;;;;;;12.68;8.80;;;;;;;16.92;91.30;92880.39;1799460;79;21666;-80
2021/07/18 01:36:19;;;;;;;12.95;10.53;;;;;;;16.93;90.91;92886.06;1800222;79;21881;-78
2021/07/18 01:38:46;;;;;;;13.38;9.65;;;;;;;16.89;90.69;92884.06;1800897;79;21012;-78
2021/07/18 01:41:12;;;;;;;14.35;9.45;;;;;;;16.86;90.69;92879.45;1800035;79;21198;-78
2021/07/18 01:43:39;;;;;;;13.05;9.53;;;;;;;16.80;91.02;92883.38;1798980;79;20982;-78
2021/07/18 01:46:07;;;;;;;12.93;8.33;;;;;;;16.81;91.45;92880.02;1744471;79;21713;-80
2021/07/18 01:48:34;;;;;;;10.93;7.72;;;;;;;16.85;91.42;92876.53;1798971;79;21072;-80
2021/07/18 01:51:00;;;;;;;10.60;7.70;;;;;;;16.91;91.14;92874.14;1798546;79;21022;-80
2021/07/18 01:53:26;;;;;;;9.95;8.08;;;;;;;16.95;90.90;92873.40;1799326;79;21053;-80
2021/07/18 01:55:54;;;;;;;10.90;8.30;;;;;;;16.90;90.92;92876.73;1798716;79;21358;-81
2021/07/18 01:58:28;;;;;;;10.65;8.60;;;;;;;16.81;91.35;92878.03;1798628;79;21036;-81
2021/07/18 02:00:56;;;;;;;11.57;8.25;;;;;;;16.79;91.79;92876.36;1798438;79;21096;-81
2021/07/18 02:03:23;;;;;;;9.90;8.18;;;;;;;16.78;91.95;92878.19;1799772;79;21132;-80
2021/07/18 02:05:49;;;;;;;14.65;7.92;;;;;;;16.78;92.01;92875.45;1799910;79;21041;-80
2021/07/18 02:08:19;;;;;;;12.13;7.40;;;;;;;16.74;92.18;92878.31;1797784;79;21089;-80
2021/07/18 02:10:46;;;;;;;9.30;8.18;;;;;;;16.71;92.37;92870.33;1799041;79;21535;-80
2021/07/18 02:13:18;;;;;;;10.55;7.67;;;;;;;16.72;92.68;92876.59;1797721;79;21084;-81
2021/07/18 02:15:46;;;;;;;13.88;7.95;;;;;;;16.73;92.51;92878.11;1798428;79;21041;-81
2021/07/18 02:18:14;;;;;;;14.73;8.48;;;;;;;16.75;92.43;92880.61;1797977;79;21056;-81
2021/07/18 02:20:41;;;;;;;13.98;8.75;;;;;;;16.81;92.27;92883.53;1798283;79;21480;-81
2021/07/18 02:23:09;;;;;;;9.45;7.60;;;;;;;16.88;92.01;92884.64;1796940;79;21646;-81
2021/07/18 02:25:35;;;;;;;10.10;8.35;;;;;;;16.93;91.76;92885.45;1798104;79;22100;-80
2021/07/18 02:28:02;;;;;;;10.35;8.20;;;;;;;16.88;91.73;92878.39;1799429;79;21056;-81
2021/07/18 02:30:28;;;;;;;9.90;7.87;;;;;;;16.81;92.23;92879.41;1798901;79;21068;-81
2021/07/18 02:32:55;;;;;;;9.80;7.90;;;;;;;16.80;92.60;92879.87;1797902;79;21100;-81
2021/07/18 02:35:22;;;;;;;9.70;7.75;;;;;;;16.83;92.57;92883.86;1797559;79;21662;-81
2021/07/18 02:37:49;;;;;;;11.25;8.08;;;;;;;16.80;92.31;92878.50;1796652;79;22179;-81
2021/07/18 02:40:17;;;;;;;9.88;8.10;;;;;;;16.80;92.36;92876.52;1797383;79;21432;-81
2021/07/18 02:42:43;;;;;;;10.58;8.28;;;;;;;16.86;92.43;92886.33;1795178;79;21590;-80
2021/07/18 02:45:13;;;;;;;9.90;8.55;;;;;;;16.87;92.25;92876.87;1798116;79;21040;-80
2021/07/18 02:47:42;;;;;;;11.80;8.53;;;;;;;16.86;92.16;92871.22;1799858;79;21014;-81
2021/07/18 02:50:11;;;;;;;12.65;9.25;;;;;;;16.82;91.80;92876.84;1799300;79;21570;-80
2021/07/18 02:52:38;;;;;;;13.13;9.68;;;;;;;16.79;91.66;92876.97;1799567;79;21010;-80
2021/07/18 02:55:06;;;;;;;13.50;9.68;;;;;;;16.73;91.83;92882.22;1799906;79;21045;-80
2021/07/18 02:57:33;;;;;;;13.70;9.68;;;;;;;16.69;91.94;92876.86;1799382;79;21432;-81
2021/07/18 02:59:59;;;;;;;13.48;10.53;;;;;;;16.68;92.18;92880.83;1799327;79;21547;-81
2021/07/18 03:02:25;;;;;;;15.90;9.90;;;;;;;16.67;91.97;92882.66;1799439;79;21741;-81
2021/07/18 03:04:52;;;;;;;12.43;9.83;;;;;;;16.60;92.20;92879.55;1798857;79;21045;-81
2021/07/18 03:07:18;;;;;;;12.07;9.48;;;;;;;16.59;92.54;92882.14;1799660;79;21056;-81
2021/07/18 03:09:44;;;;;;;10.88;9.05;;;;;;;16.62;92.60;92869.48;1798995;79;21238;-80
2021/07/18 03:12:11;;;;;;;10.65;7.90;;;;;;;16.66;92.81;92868.17;1799112;79;21037;-80
2021/07/18 03:14:37;;;;;;;11.97;8.30;;;;;;;16.70;92.91;92877.05;1799688;79;21264;-80
2021/07/18 03:17:04;;;;;;;11.57;7.70;;;;;;;16.72;92.75;92873.84;1799930;79;21384;-80
2021/07/18 03:19:31;;;;;;;14.25;8.53;;;;;;;16.73;92.68;92878.11;1799459;79;21028;-80
2021/07/18 03:21:58;;;;;;;10.43;7.62;;;;;;;16.71;92.79;92874.45;1799417;79;21714;-80
2021/07/18 03:24:25;;;;;;;18.25;9.45;;;;;;;16.72;93.02;92880.09;1798877;79;21029;-80
2021/07/18 03:26:51;;;;;;;12.50;9.43;;;;;;;16.72;92.50;92884.20;1797943;79;21124;-80
2021/07/18 03:29:18;;;;;;;13.70;9.25;;;;;;;16.70;92.44;92877.05;1798407;79;21053;-81
2021/07/18 03:31:44;;;;;;;15.68;10.43;;;;;;;16.69;92.25;92878.84;1798354;79;21053;-80
2021/07/18 03:34:11;;;;;;;17.57;11.70;;;;;;;16.68;92.14;92883.57;1797272;79;21096;-80
2021/07/18 03:36:37;;;;;;;11.28;10.05;;;;;;;16.73;91.91;92881.64;1799044;79;21061;-81
2021/07/18 03:39:04;;;;;;;10.70;8.18;;;;;;;16.75;91.62;92881.98;1798280;79;21351;-81
2021/07/18 03:41:31;;;;;;;12.03;8.88;;;;;;;16.74;91.64;92885.18;1798758;79;21040;-78
2021/07/18 03:43:58;;;;;;;12.23;8.50;;;;;;;16.64;92.23;92882.94;1799356;79;21330;-78
2021/07/18 03:46:25;;;;;;;11.20;7.92;;;;;;;16.62;92.73;92879.86;1798812;79;21162;-78
2021/07/18 03:48:51;;;;;;;15.25;8.48;;;;;;;16.58;93.32;92878.45;1797886;79;21040;-79
2021/07/18 03:51:18;;;;;;;13.08;8.20;;;;;;;16.55;94.13;92870.53;1797329;79;22047;-79
2021/07/18 03:53:45;;;;;;;10.53;8.50;;;;;;;16.62;94.25;92874.98;1797276;79;21079;-80
2021/07/18 03:56:12;;;;;;;9.03;7.45;;;;;;;16.70;94.12;92880.40;1797622;79;21041;-81
2021/07/18 03:58:39;;;;;;;12.13;7.45;;;;;;;16.80;93.82;92881.23;1780301;79;21062;-81
2021/07/18 04:01:10;;;;;;;16.60;9.03;;;;;;;16.86;93.49;92881.59;1768767;78;21400;-80
2021/07/18 04:03:34;;;;;;;10.40;8.38;;;;;;;16.93;93.47;92881.34;1791751;78;21197;-81
2021/07/18 04:06:04;;;;;;;10.43;8.10;;;;;;;17.05;92.92;92878.35;1799429;78;21053;-81
2021/07/18 04:08:33;;;;;;;16.30;8.48;;;;;;;17.14;92.69;92875.64;1795128;78;21034;-81
2021/07/18 04:10:59;;;;;;;9.13;7.55;;;;;;;17.20;92.34;92880.72;1809356;78;21516;-79
2021/07/18 04:13:28;;;;;;;8.88;7.25;;;;;;;17.24;91.78;92879.22;1759583;80;21256;-78
2021/07/18 04:15:56;;;;;;;9.60;8.58;;;;;;;17.19;91.74;92878.44;1768451;78;21128;-79
2021/07/18 04:18:24;;;;;;;10.70;7.80;;;;;;;17.14;92.26;92877.02;1800330;78;21089;-79
2021/07/18 04:20:51;;;;;;;13.40;7.97;;;;;;;17.17;92.70;92872.00;1767056;79;21024;-79
2021/07/18 04:23:18;;;;;;;10.53;7.70;;;;;;;17.30;93.10;92882.13;1776369;79;21089;-79
2021/07/18 04:25:45;;;;;;;13.68;7.70;;;;;;;17.50;92.77;92876.28;1798733;79;20962;-80
2021/07/18 04:28:20;;;;;;;11.73;8.40;;;;;;;17.72;92.11;92876.36;1798366;79;21697;-79
2021/07/18 04:30:42;;;;;;;10.55;8.90;;;;;;;17.94;91.29;92874.92;1794466;79;21060;-80
2021/07/18 04:33:10;;;;;;;14.45;10.00;;;;;;;18.18;90.21;92875.73;1796603;78;21945;-80
2021/07/18 04:35:37;;;;;;;13.60;10.13;;;;;;;18.36;88.80;92877.13;1802316;78;21523;-78
2021/07/18 04:38:03;;;;;;;15.63;10.55;;;;;;;18.57;88.24;92880.94;1812018;78;21626;-78
2021/07/18 04:40:32;;;;;;;13.43;10.43;;;;;;;18.79;86.50;92878.05;1792823;79;21997;-81
2021/07/18 04:42:59;;;;;;;14.90;10.82;;;;;;;18.97;85.21;92877.28;1727274;78;21080;-81
2021/07/18 04:45:27;;;;;;;12.95;10.70;;;;;;;19.19;84.35;92885.35;1807558;78;21001;-80
2021/07/18 04:47:55;;;;;;;13.05;9.25;;;;;;;19.34;83.74;92891.74;1791985;79;21021;-81
2021/07/18 04:50:27;;;;;;;13.22;8.23;;;;;;;19.39;82.53;92886.20;1804774;79;21018;-81
2021/07/18 04:52:53;;;;;;;13.72;8.90;;;;;;;19.44;81.32;92888.33;1796596;79;22452;-80
2021/07/18 04:55:20;;;;;;;12.25;9.18;;;;;;;19.51;81.49;92883.10;1772190;79;21137;-80
2021/07/18 04:57:47;;;;;;;11.65;9.35;;;;;;;19.59;80.94;92887.05;1810986;78;21089;-80
2021/07/18 05:00:16;;;;;;;13.70;9.23;;;;;;;19.67;80.54;92886.13;1777092;80;21658;-80
2021/07/18 05:02:43;;;;;;;13.90;9.18;;;;;;;19.70;80.43;92883.20;1797091;78;21084;-80
2021/07/18 05:05:10;;;;;;;10.00;8.65;;;;;;;19.73;81.16;92881.52;1812303;78;21113;-80
2021/07/18 05:07:56;;;;;;;11.88;8.28;;;;;;;19.75;81.55;92885.34;1809093;78;21037;-81
2021/07/18 05:10:40;;;;;;;17.48;8.95;;;;;;;19.81;81.67;92893.12;1791593;78;21061;-79
2021/07/18 05:13:07;;;;;;;12.05;8.50;;;;;;;19.89;81.77;92880.51;1805563;78;21033;-80
2021/07/18 05:15:34;;;;;;;16.57;8.75;;;;;;;20.02;80.79;92891.96;1796977;78;20918;-80
2021/07/18 05:18:13;;;;;;;11.65;8.35;;;;;;;20.16;80.29;92891.87;1743497;80;21041;-81
2021/07/18 05:20:41;;;;;;;10.93;7.92;;;;;;;20.32;79.26;92884.58;1749856;80;21046;-80
2021/07/18 05:23:08;;;;;;;23.07;9.48;;;;;;;20.43;78.70;92891.71;1748447;80;21074;-81
2021/07/18 05:25:34;;;;;;;11.45;8.28;;;;;;;20.53;78.49;92884.14;1763574;80;21710;-80
2021/07/18 05:28:01;;;;;;;22.48;8.90;;;;;;;20.74;77.22;92884.44;1732691;81;20965;-79
2021/07/18 05:30:28;;;;;;;9.55;7.80;;;;;;;20.98;75.59;92888.52;1756894;80;21109;-80
2021/07/18 05:32:54;;;;;;;10.28;8.03;;;;;;;21.28;74.81;92892.08;1765199;80;21050;-82
2021/07/18 05:35:20;;;;;;;11.35;7.05;;;;;;;21.68;73.81;92885.84;1771975;79;21050;-79
2021/07/18 05:37:47;;;;;;;16.62;8.40;;;;;;;22.15;72.34;92893.11;1755929;80;21105;-81
2021/07/18 05:40:14;;;;;;;13.05;8.00;;;;;;;22.58;71.49;92886.52;1738193;80;21093;-79
2021/07/18 05:42:41;;;;;;;11.28;8.08;;;;;;;22.85;69.88;92881.16;1767111;79;21285;-80
2021/07/18 05:45:09;;;;;;;10.85;8.38;;;;;;;23.01;67.82;92886.77;1797301;78;21035;-80
2021/07/18 05:47:36;;;;;;;11.22;7.60;;;;;;;23.01;67.97;92893.70;1806381;78;21037;-81
2021/07/18 05:50:06;;;;;;;13.25;7.53;;;;;;;22.98;67.30;92882.20;1800403;78;21061;-81
2021/07/18 05:52:33;;;;;;;13.05;7.87;;;;;;;22.94;67.30;92880.27;1794944;78;21073;-82
2021/07/18 05:55:00;;;;;;;16.73;8.75;;;;;;;22.97;67.13;92879.30;1821846;77;21097;-81
2021/07/18 05:57:34;;;;;;;11.25;8.40;;;;;;;23.03;67.15;92876.73;1793322;78;21256;-81
2021/07/18 06:00:13;;;;;;;17.62;7.92;;;;;;;23.13;66.67;92879.33;1769181;78;21069;-83
2021/07/18 06:02:44;;;;;;;8.80;7.37;;;;;;;23.22;65.57;92881.33;1785018;78;21063;-83
2021/07/18 06:05:16;;;;;;;14.85;8.28;;;;;;;23.32;65.74;92883.32;1781273;78;21697;-83
2021/07/18 06:07:43;;;;;;;9.70;7.70;;;;;;;23.45;65.85;92877.38;1742032;78;21179;-82
2021/07/18 06:10:11;;;;;;;9.95;7.30;;;;;;;23.65;64.77;92881.45;1794826;78;20973;-83
2021/07/18 06:12:38;;;;;;;12.68;7.00;;;;;;;23.88;64.46;92878.27;1795555;78;21063;-80
2021/07/18 06:15:06;;;;;;;7.80;7.08;;;;;;;24.15;63.88;92877.56;1769490;79;21578;-80
2021/07/18 06:17:39;;;;;;;14.38;7.40;;;;;;;24.39;63.20;92877.97;1764400;78;21080;-82
2021/07/18 06:20:10;;;;;;;11.75;7.40;;;;;;;24.57;63.15;92877.44;1795731;78;21132;-80
2021/07/18 06:22:37;;;;;;;9.40;7.28;;;;;;;24.67;61.02;92874.55;1797554;78;21479;-83
2021/07/18 06:25:06;;;;;;;9.93;6.85;;;;;;;24.73;60.97;92875.98;1801002;78;21103;-81
2021/07/18 06:27:37;;;;;;;12.05;7.37;;;;;;;24.86;61.04;92873.48;1804108;78;21096;-81
2021/07/18 06:30:06;;;;;;;9.65;6.70;;;;;;;24.95;59.28;92878.20;1799160;78;21677;-84
2021/07/18 06:32:32;;;;;;;11.53;8.05;;;;;;;24.94;59.14;92871.13;1816440;77;21162;-78
2021/07/18 06:35:00;;;;;;;12.37;8.40;;;;;;;24.90;58.95;92873.40;1818890;77;21754;-80
2021/07/18 06:37:26;;;;;;;15.03;7.62;;;;;;;24.86;59.81;92867.93;1796166;78;21940;-83
2021/07/18 06:39:55;;;;;;;11.38;7.45;;;;;;;24.81;59.94;92870.07;1820996;77;21832;-80
2021/07/18 06:42:22;;;;;;;9.95;7.00;;;;;;;24.76;60.81;92868.03;1822705;77;21048;-81
2021/07/18 06:44:49;;;;;;;8.95;7.55;;;;;;;24.69;60.80;92863.08;1820146;77;21113;-82
2021/07/18 06:47:16;;;;;;;10.38;7.90;;;;;;;24.58;61.65;92865.05;1807371;77;21096;-81
2021/07/18 06:49:42;;;;;;;12.78;7.50;;;;;;;24.47;62.21;92861.59;1762514;77;21047;-81
2021/07/18 06:52:11;;;;;;;12.35;7.33;;;;;;;24.39;62.63;92859.91;1780173;79;21044;-80
2021/07/18 06:54:37;;;;;;;11.45;7.28;;;;;;;24.35;62.78;92864.91;1820351;77;21108;-80
2021/07/18 06:57:05;;;;;;;16.65;7.87;;;;;;;24.29;62.86;92864.11;1802634;77;21111;-83
2021/07/18 06:59:34;;;;;;;11.15;7.90;;;;;;;24.16;62.86;92855.47;1765435;79;21591;-79
2021/07/18 07:02:02;;;;;;;15.20;7.42;;;;;;;24.02;63.96;92864.09;1785053;78;21162;-80
2021/07/18 07:04:30;;;;;;;13.10;8.70;;;;;;;23.88;64.73;92857.45;1760541;80;21049;-80
2021/07/18 07:06:58;;;;;;;14.85;7.45;;;;;;;23.78;65.19;92860.91;1823853;77;21612;-82
2021/07/18 07:09:30;;;;;;;14.25;8.05;;;;;;;23.71;65.64;92860.72;1796592;78;21583;-79
2021/07/18 07:12:08;;;;;;;10.53;8.30;;;;;;;23.65;65.52;92863.41;1770747;78;21113;-82
2021/07/18 07:14:36;;;;;;;9.63;7.78;;;;;;;23.57;66.06;92858.17;1800302;78;21085;-83
2021/07/18 07:17:09;;;;;;;11.63;8.05;;;;;;;23.47;66.72;92855.46;1822057;77;21131;-82
2021/07/18 07:19:39;;;;;;;10.98;9.30;;;;;;;23.41;67.15;92858.80;1759732;79;21085;-80
2021/07/18 07:22:17;;;;;;;11.10;7.85;;;;;;;23.36;68.31;92863.69;1797060;78;21162;-80
2021/07/18 07:24:56;;;;;;;13.50;8.08;;;;;;;23.27;69.21;92858.42;1765823;79;21061;-81
2021/07/18 07:27:29;;;;;;;15.35;7.62;;;;;;;23.15;69.90;92858.81;1792247;78;21103;-82
2021/07/18 07:29:59;;;;;;;9.90;7.67;;;;;;;23.03;70.40;92862.10;1749679;80;21061;-81
2021/07/18 07:32:27;;;;;;;8.83;7.75;;;;;;;22.89;73.60;92856.75;1771559;78;21108;-82
2021/07/18 07:34:54;;;;;;;10.13;7.70;;;;;;;22.76;75.48;92866.83;1788589;78;21101;-82
2021/07/18 07:37:24;;;;;;;10.10;8.38;;;;;;;22.59;77.16;92867.87;1797816;78;21064;-79
2021/07/18 07:39:53;;;;;;;11.22;8.10;;;;;;;22.44;77.76;92857.63;1769315;78;21047;-80
2021/07/18 07:42:21;;;;;;;10.32;8.00;;;;;;;22.30;78.49;92864.77;1780535;78;21116;-80
2021/07/18 07:44:48;;;;;;;11.10;7.67;;;;;;;22.21;79.11;92859.97;1797943;78;21077;-81
2021/07/18 07:47:16;;;;;;;11.15;8.45;;;;;;;22.18;79.40;92860.94;1798391;78;21135;-81
2021/07/18 07:49:44;;;;;;;13.40;8.38;;;;;;;22.21;79.54;92863.50;1794193;78;21077;-81
2021/07/18 07:52:11;;;;;;;11.43;8.23;;;;;;;22.21;79.71;92860.73;1798060;78;21904;-81
2021/07/18 07:54:45;;;;;;;15.10;8.18;;;;;;;22.28;80.54;92858.94;1801128;78;21458;-81
2021/07/18 07:57:11;;;;;;;10.43;7.80;;;;;;;22.50;81.45;92865.39;1795273;78;21579;-81
2021/07/18 07:59:37;;;;;;;8.40;7.00;;;;;;;22.77;78.40;92860.03;1794435;78;21969;-81
2021/07/18 08:02:05;;;;;;;11.75;7.65;;;;;;;22.95;77.35;92852.07;1795672;78;21047;-81
2021/07/18 08:04:31;;;;;;;13.93;9.10;;;;;;;23.10;76.11;92853.98;1796191;78;21089;-80
2021/07/18 08:06:59;;;;;;;9.10;7.15;;;;;;;23.20;76.58;92855.33;1797659;78;21056;-79
2021/07/18 08:09:26;;;;;;;15.30;8.65;;;;;;;23.34;72.52;92853.06;1767011;78;21057;-79
2021/07/18 08:11:54;;;;;;;13.53;7.75;;;;;;;23.51;72.31;92849.82;1781319;78;21307;-80
2021/07/18 08:14:21;;;;;;;15.05;7.22;;;;;;;23.72;71.67;92851.13;1790648;78;22019;-79
2021/07/18 08:16:48;;;;;;;12.75;7.55;;;;;;;23.94;71.19;92851.29;1759236;80;21076;-79
2021/07/18 08:19:15;;;;;;;11.93;8.10;;;;;;;24.16;68.36;92849.28;1794618;78;21063;-80
2021/07/18 08:21:44;;;;;;;11.03;7.33;;;;;;;24.35;67.63;92844.71;1808072;78;21120;-80
2021/07/18 08:24:10;;;;;;;10.25;7.92;;;;;;;24.51;69.29;92847.45;1797507;78;21429;-80
2021/07/18 08:26:37;;;;;;;9.95;7.87;;;;;;;24.68;68.86;92851.83;1805546;78;21033;-80
2021/07/18 08:29:05;;;;;;;9.68;7.90;;;;;;;24.80;68.87;92848.46;1801012;78;21025;-80
2021/07/18 08:31:31;;;;;;;9.20;7.12;;;;;;;24.88;67.64;92853.66;1806144;78;21050;-80
2021/07/18 08:34:00;;;;;;;17.10;7.87;;;;;;;24.94;67.72;92848.89;1803196;78;21625;-80
2021/07/18 08:36:29;;;;;;;18.12;8.20;;;;;;;25.03;67.34;92845.75;1796659;78;21164;-81
2021/07/18 08:38:55;;;;;;;13.25;8.00;;;;;;;25.19;66.54;92849.97;1792101;78;21607;-81
2021/07/18 08:41:22;;;;;;;11.28;7.47;;;;;;;25.33;65.70;92848.23;1760567;79;20998;-79
2021/07/18 08:43:51;;;;;;;12.25;8.05;;;;;;;25.42;64.95;92841.02;1800337;78;21084;-79
2021/07/18 08:46:20;;;;;;;10.13;7.83;;;;;;;25.41;63.29;92839.50;1797226;78;21419;-79
2021/07/18 08:48:48;;;;;;;9.78;7.12;;;;;;;25.38;63.24;92839.75;1793288;78;21137;-79
2021/07/18 08:51:14;;;;;;;8.65;7.75;;;;;;;25.33;62.08;92843.30;1782759;78;21155;-79
2021/07/18 08:53:41;;;;;;;11.95;7.25;;;;;;;25.26;62.10;92842.40;1765847;78;21129;-78
2021/07/18 08:56:11;;;;;;;13.25;7.87;;;;;;;25.29;63.19;92842.79;1799979;78;20996;-81
2021/07/18 08:58:40;;;;;;;13.50;7.60;;;;;;;25.35;62.93;92845.71;1762538;79;22171;-82
2021/07/18 09:01:07;;;;;;;13.32;7.55;;;;;;;25.43;62.83;92843.95;1790175;78;21128;-81
2021/07/18 09:03:35;;;;;;;15.55;7.97;;;;;;;25.50;60.22;92841.30;1799386;78;21024;-83
2021/07/18 09:06:11;;;;;;;13.18;8.25;;;;;;;25.50;60.48;92838.52;1818324;77;21219;-82
2021/07/18 09:08:51;;;;;;;11.90;8.00;;;;;;;25.47;60.85;92840.91;1763213;77;21542;-81
2021/07/18 09:11:31;;;;;;;10.48;8.38;;;;;;;25.44;60.71;92830.78;1784202;78;21056;-80
2021/07/18 09:14:05;;;;;;;10.88;7.80;;;;;;;25.41;60.19;92838.75;1785905;78;21364;-83
2021/07/18 09:16:37;;;;;;;;;;;;;;;25.38;61.78;92840.51;1743164;79;21085;-81
2021/07/18 09:19:20;;;;;;;13.55;7.85;;;;;;;25.35;65.63;92840.75;1761889;78;20217;-81
2021/07/18 09:22:25;;;;;;;9.88;8.00;;;;;;;25.31;62.24;92841.03;1797436;77;21097;-80
2021/07/18 09:25:01;;;;;;;17.70;9.50;;;;;;;25.31;62.91;92840.25;1766462;78;21054;-80
2021/07/18 09:27:33;;;;;;;13.38;8.00;;;;;;;25.29;62.04;92842.79;1742765;79;20979;-81
2021/07/18 09:33:25;;;;;;;10.80;8.13;;;;;;;25.16;62.70;92841.87;1724995;81;21148;-81
2021/07/18 09:36:11;;;;;;;11.18;8.48;;;;;;;25.12;63.62;92830.98;1790154;78;21047;-81
2021/07/18 09:38:38;;;;;;;12.07;7.97;;;;;;;25.09;65.83;92831.98;1757410;79;21026;-80
2021/07/18 09:41:08;;;;;;;10.75;8.53;;;;;;;25.06;66.44;92830.20;1744849;79;21117;-79
2021/07/18 09:43:41;;;;;;;13.72;8.58;;;;;;;25.06;67.18;92829.45;1748868;78;21549;-82
2021/07/18 09:46:14;;;;;;;9.93;8.45;;;;;;;25.08;67.89;92823.49;1801381;78;21585;-80
2021/07/18 09:48:46;;;;;;;15.38;9.20;;;;;;;25.18;69.45;92818.48;1745925;79;21070;-81
2021/07/18 09:51:15;;;;;;;13.70;7.85;;;;;;;25.32;68.56;92816.75;1757836;79;21107;-79
2021/07/18 09:53:43;;;;;;;21.00;9.68;;;;;;;25.47;64.18;92817.26;1792860;77;21584;-81
2021/07/18 09:56:20;;;;;;;12.30;8.13;;;;;;;25.57;62.36;92812.94;1794002;77;21356;-80
2021/07/18 09:58:57;;;;;;;13.18;8.08;;;;;;;25.63;63.77;92817.88;1792955;77;21078;-82
2021/07/18 10:01:24;;;;;;;31.82;9.35;;;;;;;25.64;63.23;92811.67;1797856;77;21122;-82
2021/07/18 10:03:54;;;;;;;18.23;8.70;;;;;;;25.59;63.11;92811.81;1770086;78;21662;-81
2021/07/18 10:06:25;;;;;;;10.75;8.43;;;;;;;25.57;62.76;92816.35;1734417;80;21122;-80
2021/07/18 10:08:59;;;;;;;16.45;8.23;;;;;;;25.58;63.88;92819.28;1788268;78;21076;-80
2021/07/18 10:11:27;;;;;;;18.85;9.28;;;;;;;25.62;64.00;92810.05;1770003;77;21102;-82
2021/07/18 10:13:57;;;;;;;12.68;8.23;;;;;;;25.66;64.13;92806.37;1775437;77;21088;-82
2021/07/18 10:16:26;;;;;;;16.67;9.78;;;;;;;25.66;64.37;92803.59;1800092;77;21059;-79
2021/07/18 10:18:58;;;;;;;17.27;8.23;;;;;;;25.66;62.28;92800.80;1800706;77;21105;-80
2021/07/18 10:21:27;;;;;;;26.55;8.38;;;;;;;25.70;58.76;92799.91;1733486;80;21081;-81
2021/07/18 10:23:55;;;;;;;10.55;7.83;;;;;;;25.75;57.15;92805.34;1770470;78;21078;-81
2021/07/18 10:26:27;;;;;;;24.47;8.98;;;;;;;25.82;54.88;92804.22;1770367;79;21112;-80
2021/07/18 10:28:57;;;;;;;8.98;7.40;;;;;;;25.94;55.54;92798.64;1749439;79;21576;-79
2021/07/18 10:31:52;;;;;;;11.03;7.42;;;;;;;25.97;53.80;92804.59;1773648;79;21085;-81
2021/07/18 10:34:20;;;;;;;17.57;9.08;;;;;;;25.95;52.78;92807.11;1775564;79;21049;-79
2021/07/18 10:36:50;;;;;;;15.00;8.58;;;;;;;25.87;53.80;92809.02;1720516;81;21085;-81
2021/07/18 10:39:36;;;;;;;9.50;7.60;;;;;;;25.82;54.40;92806.25;1751945;79;21089;-80
2021/07/18 10:42:09;;;;;;;12.55;8.95;;;;;;;25.78;54.28;92809.30;1772201;79;21059;-80
2021/07/18 10:44:46;;;;;;;16.15;9.33;;;;;;;25.74;54.75;92796.88;1778211;79;21165;-80
2021/07/18 10:47:17;;;;;;;10.45;8.13;;;;;;;25.71;55.67;92787.50;1765763;79;21056;-81
2021/07/18 10:49:59;;;;;;;11.70;7.72;;;;;;;25.74;54.64;92787.88;1747618;78;21074;-81
2021/07/18 10:52:32;;;;;;;11.83;8.25;;;;;;;25.82;54.08;92785.37;1752660;79;21374;-80
2021/07/18 10:55:02;;;;;;;16.95;8.70;;;;;;;25.87;54.62;92796.48;1717217;80;21066;-81
2021/07/18 10:57:33;;;;;;;10.93;8.18;;;;;;;25.88;55.01;92800.05;1751234;79;21663;-81
2021/07/18 11:00:24;;;;;;;14.98;8.43;;;;;;;25.88;54.73;92795.23;1770293;79;21607;-80
2021/07/18 11:03:15;;;;;;;11.78;8.08;;;;;;;25.86;54.58;92792.83;1710189;80;21574;-82
2021/07/18 11:05:46;;;;;;;11.22;8.55;;;;;;;25.82;54.87;92794.48;1729867;79;21460;-79
2021/07/18 11:08:16;;;;;;;11.75;8.28;;;;;;;25.79;55.21;92794.73;1757475;79;21044;-79
2021/07/18 11:10:54;;;;;;;10.32;7.62;;;;;;;25.79;54.92;92794.09;1739602;79;21154;-80
2021/07/18 11:13:23;;;;;;;15.03;8.40;;;;;;;25.81;55.66;92788.80;1770893;79;21283;-82
2021/07/18 11:15:50;;;;;;;12.28;8.93;;;;;;;25.91;56.27;92787.27;1723148;81;21019;-79
2021/07/18 11:18:33;;;;;;;15.00;8.40;;;;;;;26.03;56.26;92785.84;1740689;80;21049;-80
2021/07/18 11:21:00;;;;;;;8.20;7.40;;;;;;;26.14;55.82;92784.42;1756744;78;21033;-80
2021/07/18 11:23:38;;;;;;;10.63;7.78;;;;;;;26.25;55.43;92781.58;1730456;80;21566;-81
2021/07/18 11:26:19;;;;;;;11.03;7.65;;;;;;;26.37;55.01;92781.68;1734863;79;20985;-82
2021/07/18 11:28:50;;;;;;;13.72;8.20;;;;;;;26.49;54.40;92779.63;1773784;78;21111;-83
2021/07/18 11:31:21;;;;;;;9.30;7.83;;;;;;;26.55;53.30;92779.59;1751927;79;20929;-81
2021/07/18 11:34:06;;;;;;;9.63;7.67;;;;;;;26.52;53.73;92778.61;1793863;78;21113;-79
2021/07/18 11:36:42;;;;;;;9.20;8.30;;;;;;;26.48;53.73;92767.59;1755940;79;21057;-81
2021/07/18 11:39:14;;;;;;;9.65;7.35;;;;;;;26.45;54.40;92777.72;1788874;77;21156;-80